Alberta, Minnesota
Current Conditions -  °F | °C
As of 9:53 AM on Saturday 20 Dec 2014 (Local Time) from KMOX Reporting Station
Haze Haze  
Wind Chill: 21°   Ceiling: Unl
Heat Index: 30°   Visibility: 4mi
Dew Point: 28°   Wind: 12mph
Humidity: 93%   Direction: 180°S
Pressure: 30.05"   Gusts: NA
Location:  45.57°N, 96.05°W
Report Text: KMOX 201553Z AUTO 18010KT 4SM BR SCT006 M01/M02 A3005 RMK AO2
Loading
Personal Weather Stations






























Interactive Weather Map New forecast layout! Learn more

10-Day Weather Forecast

Advertisements
Track Severe Weather on mobile